Time;durP1;ratioP1;P1;durP2;ratioP2;P2;SDS_P1;SDS_P2;PMS_P1;PMS_P2;Temp;Humidity;BMP_temperature;BMP_pressure;BME280_temperature;BME280_humidity;BME280_pressure;Samples;Min_cycle;Max_cycle;Signal;HPM_P1;HPM_P2
2022/06/04 00:00:38;;;;;;;3.20;1.75;;;;;;;;;;5096408;27;95445;-76
2022/06/04 00:03:05;;;;;;;2.50;1.90;;;;;;;;;;5099639;27;96791;-73
2022/06/04 00:05:33;;;;;;;4.78;2.10;;;;;;;;;;5096136;27;95208;-76
2022/06/04 00:08:05;;;;;;;3.63;2.00;;;;;;;;;;5092087;27;96341;-76
2022/06/04 00:16:25;;;;;;;2.95;1.90;;;;;;;;;;5094747;27;96117;-75
2022/06/04 00:18:55;;;;;;;3.05;2.10;;;;;;;;;;5093052;27;96297;-75
2022/06/04 00:21:29;;;;;;;3.80;2.30;;;;;;;;;;5080646;27;95318;-74
2022/06/04 00:24:01;;;;;;;3.42;2.00;;;;;;;;;;5092849;27;95840;-76
2022/06/04 00:26:32;;;;;;;3.77;2.13;;;;;;;;;;5096383;27;98994;-74
2022/06/04 00:29:04;;;;;;;3.45;2.20;;;;;;;;;;5093827;27;95256;-74
2022/06/04 00:31:36;;;;;;;3.63;1.95;;;;;;;;;;5083777;27;96291;-76
2022/06/04 00:34:06;;;;;;;3.25;2.13;;;;;;;;;;5096772;27;95456;-74
2022/06/04 00:36:42;;;;;;;4.82;2.15;;;;;;;;;;5076758;27;96558;-73
2022/06/04 00:39:14;;;;;;;4.30;2.40;;;;;;;;;;5075297;27;96481;-75
2022/06/04 00:41:51;;;;;;;3.15;2.00;;;;;;;;;;5095050;27;95725;-74
2022/06/04 00:44:20;;;;;;;4.68;2.08;;;;;;;;;;5090368;27;96111;-76
2022/06/04 00:47:06;;;;;;;5.78;2.10;;;;;;;;;;5092090;27;96954;-76
2022/06/04 00:49:37;;;;;;;4.03;2.30;;;;;;;;;;5078477;27;95685;-75
2022/06/04 00:52:07;;;;;;;4.30;2.40;;;;;;;;;;5089761;27;96373;-74
2022/06/04 00:54:33;;;;;;;6.00;2.47;;;;;;;;;;5095766;27;95417;-75
2022/06/04 00:57:18;;;;;;;6.68;2.63;;;;;;;;;;5096459;27;96643;-75
2022/06/04 01:00:04;;;;;;;3.10;2.20;;;;;;;;;;5095141;27;97382;-76
2022/06/04 01:02:31;;;;;;;3.83;2.17;;;;;;;;;;5091904;27;95290;-75
2022/06/04 01:04:57;;;;;;;3.05;2.10;;;;;;;;;;5094427;27;96901;-75
2022/06/04 01:07:35;;;;;;;3.50;2.35;;;;;;;;;;5094529;27;96363;-74
2022/06/04 01:10:17;;;;;;;4.55;2.50;;;;;;;;;;5093470;27;95348;-73
2022/06/04 01:12:50;;;;;;;5.63;2.58;;;;;;;;;;5097123;27;96797;-73
2022/06/04 01:15:21;;;;;;;3.85;2.28;;;;;;;;;;5095284;27;95233;-73
2022/06/04 01:18:06;;;;;;;2.85;2.00;;;;;;;;;;5092487;27;96707;-73
2022/06/04 01:20:40;;;;;;;4.90;2.55;;;;;;;;;;5074884;27;97385;-72
2022/06/04 01:23:14;;;;;;;3.70;2.22;;;;;;;;;;5075271;27;95236;-74
2022/06/04 01:25:47;;;;;;;5.60;2.50;;;;;;;;;;5075341;27;97270;-72
2022/06/04 01:28:18;;;;;;;3.78;2.33;;;;;;;;;;5083498;27;97900;-73
2022/06/04 01:30:50;;;;;;;4.82;2.80;;;;;;;;;;5094860;27;95186;-75
2022/06/04 01:33:19;;;;;;;4.85;2.63;;;;;;;;;;5095213;27;96830;-75
2022/06/04 01:35:50;;;;;;;4.45;2.80;;;;;;;;;;5097052;27;96105;-73
2022/06/04 01:38:16;;;;;;;4.45;2.42;;;;;;;;;;5090245;27;96859;-73
2022/06/04 01:41:03;;;;;;;5.68;2.78;;;;;;;;;;5074626;27;97472;-74
2022/06/04 01:43:50;;;;;;;6.22;3.00;;;;;;;;;;5079286;27;95619;-74
2022/06/04 01:46:17;;;;;;;5.40;2.83;;;;;;;;;;5094269;27;96748;-76
2022/06/04 01:48:45;;;;;;;4.15;2.47;;;;;;;;;;5088950;27;98606;-73
2022/06/04 01:51:16;;;;;;;5.63;3.20;;;;;;;;;;5094163;27;95375;-73
2022/06/04 01:53:43;;;;;;;6.72;2.97;;;;;;;;;;5079963;27;97021;-75
2022/06/04 01:56:15;;;;;;;5.78;2.33;;;;;;;;;;5077325;27;97234;-73
2022/06/04 01:58:45;;;;;;;5.43;2.80;;;;;;;;;;5074765;27;96845;-73
2022/06/04 02:01:14;;;;;;;4.93;2.80;;;;;;;;;;5074960;27;97391;-75
2022/06/04 02:03:45;;;;;;;3.67;2.58;;;;;;;;;;5078764;27;96759;-74
2022/06/04 02:06:14;;;;;;;4.82;2.92;;;;;;;;;;5085498;27;96968;-75
2022/06/04 02:08:44;;;;;;;8.93;2.83;;;;;;;;;;5094552;27;97819;-72
2022/06/04 02:11:13;;;;;;;7.82;2.75;;;;;;;;;;5090662;27;95733;-74
2022/06/04 02:13:41;;;;;;;5.43;2.80;;;;;;;;;;5095010;27;96744;-73
2022/06/04 02:16:14;;;;;;;5.20;2.70;;;;;;;;;;5094033;27;97413;-74
2022/06/04 02:18:41;;;;;;;4.57;2.83;;;;;;;;;;5090128;27;95341;-75
2022/06/04 02:21:08;;;;;;;5.32;3.10;;;;;;;;;;5089463;27;98335;-74
2022/06/04 02:23:35;;;;;;;5.25;2.88;;;;;;;;;;5093146;27;95185;-74
2022/06/04 02:26:02;;;;;;;4.35;2.67;;;;;;;;;;5093744;27;96811;-74
2022/06/04 02:28:29;;;;;;;4.97;2.78;;;;;;;;;;5084507;27;97367;-75
2022/06/04 02:30:58;;;;;;;4.65;2.85;;;;;;;;;;5088478;27;95434;-74
2022/06/04 02:33:34;;;;;;;4.85;2.83;;;;;;;;;;5094633;27;96984;-75
2022/06/04 02:36:05;;;;;;;4.25;2.70;;;;;;;;;;5084168;27;97367;-73
2022/06/04 02:38:37;;;;;;;8.95;2.90;;;;;;;;;;5093865;27;95530;-74
2022/06/04 02:41:09;;;;;;;9.43;2.97;;;;;;;;;;5096534;27;96880;-73
2022/06/04 02:43:58;;;;;;;4.60;2.90;;;;;;;;;;5094270;27;95352;-75
2022/06/04 02:46:32;;;;;;;4.25;2.90;;;;;;;;;;5067186;27;96384;-73
2022/06/04 02:49:19;;;;;;;4.85;2.92;;;;;;;;;;5073579;27;97437;-76
2022/06/04 02:51:47;;;;;;;5.53;3.22;;;;;;;;;;5075580;27;97010;-76
2022/06/04 02:54:18;;;;;;;4.55;2.63;;;;;;;;;;5093875;27;96695;-73
2022/06/04 02:56:46;;;;;;;7.05;2.88;;;;;;;;;;5094041;27;97485;-75
2022/06/04 02:59:14;;;;;;;11.23;3.00;;;;;;;;;;5085053;27;95737;-74
2022/06/04 03:01:42;;;;;;;5.13;2.80;;;;;;;;;;5082009;27;96751;-75
2022/06/04 03:04:09;;;;;;;4.60;2.55;;;;;;;;;;5090696;27;97428;-75
2022/06/04 03:06:36;;;;;;;4.32;2.70;;;;;;;;;;5072910;27;96897;-74
2022/06/04 03:09:04;;;;;;;4.47;2.65;;;;;;;;;;5073066;27;96473;-73
2022/06/04 03:11:33;;;;;;;4.53;2.75;;;;;;;;;;5078270;27;95589;-74
2022/06/04 03:13:59;;;;;;;6.60;3.10;;;;;;;;;;5093320;27;96742;-74
2022/06/04 03:16:33;;;;;;;6.63;3.00;;;;;;;;;;5093754;27;98663;-74
2022/06/04 03:18:59;;;;;;;4.28;2.40;;;;;;;;;;5091679;27;95450;-75
2022/06/04 03:21:28;;;;;;;5.60;2.90;;;;;;;;;;5093225;27;96872;-73
2022/06/04 03:23:54;;;;;;;5.80;2.95;;;;;;;;;;5093532;27;97485;-75
2022/06/04 03:26:21;;;;;;;5.80;2.75;;;;;;;;;;5096472;27;95333;-75
2022/06/04 03:28:47;;;;;;;8.35;3.10;;;;;;;;;;5086773;27;96397;-75
2022/06/04 03:31:14;;;;;;;5.63;2.80;;;;;;;;;;5092953;27;95371;-73
2022/06/04 03:33:40;;;;;;;4.60;2.83;;;;;;;;;;5097411;27;96969;-73
2022/06/04 03:36:08;;;;;;;4.43;2.65;;;;;;;;;;5087751;27;97263;-73
2022/06/04 03:38:34;;;;;;;5.75;2.50;;;;;;;;;;5091124;27;95324;-73
2022/06/04 03:41:01;;;;;;;3.95;2.63;;;;;;;;;;5084075;27;96700;-74
2022/06/04 03:43:27;;;;;;;6.05;2.50;;;;;;;;;;5080941;27;96504;-75
2022/06/04 03:45:54;;;;;;;4.50;2.67;;;;;;;;;;5096510;27;95308;-74
2022/06/04 03:48:20;;;;;;;4.90;2.75;;;;;;;;;;5093476;27;97038;-75
2022/06/04 03:50:47;;;;;;;6.97;3.03;;;;;;;;;;5079869;27;95309;-75
2022/06/04 03:53:13;;;;;;;4.55;3.00;;;;;;;;;;5076596;27;96921;-75
2022/06/04 03:55:39;;;;;;;4.95;2.97;;;;;;;;;;5075643;27;97379;-74
2022/06/04 03:58:06;;;;;;;6.05;3.22;;;;;;;;;;5090464;27;95742;-74
2022/06/04 04:00:34;;;;;;;3.95;2.47;;;;;;;;;;5095962;27;96902;-74
2022/06/04 04:03:09;;;;;;;7.75;2.90;;;;;;;;;;5096434;27;97286;-74
2022/06/04 04:05:37;;;;;;;5.13;3.00;;;;;;;;;;5081937;27;95341;-74
2022/06/04 04:08:06;;;;;;;4.53;2.97;;;;;;;;;;5097713;27;96747;-74
2022/06/04 04:10:33;;;;;;;7.43;3.20;;;;;;;;;;5095642;27;95616;-74
2022/06/04 04:13:00;;;;;;;7.80;3.70;;;;;;;;;;5097112;27;96680;-75
2022/06/04 04:15:26;;;;;;;6.18;3.25;;;;;;;;;;5095708;27;97715;-74
2022/06/04 04:17:53;;;;;;;5.68;3.17;;;;;;;;;;5094106;27;95427;-75
2022/06/04 04:20:20;;;;;;;6.63;3.30;;;;;;;;;;5095436;27;96847;-75
2022/06/04 04:22:47;;;;;;;5.03;2.92;;;;;;;;;;5095293;27;97385;-74
2022/06/04 04:25:14;;;;;;;6.20;2.95;;;;;;;;;;5096525;27;95293;-74
2022/06/04 04:27:41;;;;;;;5.55;3.20;;;;;;;;;;5094398;27;96628;-75
2022/06/04 04:30:09;;;;;;;4.95;2.70;;;;;;;;;;5095984;27;97399;-75
2022/06/04 04:32:35;;;;;;;7.28;3.22;;;;;;;;;;5096934;27;96858;-72
2022/06/04 04:35:03;;;;;;;5.80;3.42;;;;;;;;;;5082113;27;97540;-75
2022/06/04 04:37:30;;;;;;;6.05;3.03;;;;;;;;;;5077698;27;95444;-75
2022/06/04 04:39:56;;;;;;;5.07;3.17;;;;;;;;;;5075364;27;95613;-75
2022/06/04 04:42:23;;;;;;;5.88;3.35;;;;;;;;;;5074735;27;97892;-74
2022/06/04 04:44:49;;;;;;;5.00;3.22;;;;;;;;;;5075584;27;95357;-74
2022/06/04 04:47:16;;;;;;;7.47;3.00;;;;;;;;;;5087781;27;97005;-75
2022/06/04 04:49:43;;;;;;;5.70;3.10;;;;;;;;;;5084361;27;96919;-73
2022/06/04 04:52:09;;;;;;;8.30;3.53;;;;;;;;;;5092309;27;95645;-75
2022/06/04 04:54:35;;;;;;;6.05;3.08;;;;;;;;;;5093369;27;96095;-76
2022/06/04 04:57:02;;;;;;;5.60;3.17;;;;;;;;;;5096684;27;95343;-75
2022/06/04 04:59:29;;;;;;;9.80;3.50;;;;;;;;;;5076535;27;96837;-75
2022/06/04 05:01:55;;;;;;;6.60;2.88;;;;;;;;;;5089268;27;97404;-76
2022/06/04 05:04:22;;;;;;;6.47;3.45;;;;;;;;;;5092470;27;95392;-74
2022/06/04 05:06:48;;;;;;;4.38;2.45;;;;;;;;;;5095689;27;96985;-75
2022/06/04 05:09:15;;;;;;;6.60;3.33;;;;;;;;;;5094608;27;97324;-75
2022/06/04 05:11:45;;;;;;;7.90;2.85;;;;;;;;;;5094757;27;95440;-75
2022/06/04 05:14:17;;;;;;;5.72;3.50;;;;;;;;;;5093104;27;95875;-75
2022/06/04 19:45:29;;;;;;;4.18;2.17;;;;;;;;;;5010909;27;1296777;-77
2022/06/04 19:47:56;;;;;;;3.38;2.03;;;;;;;;;;5028601;27;97600;-76
2022/06/04 19:50:22;;;;;;;3.90;2.08;;;;;;;;;;5024173;28;95353;-75
2022/06/04 19:55:33;;;;;;;3.75;2.50;;;;;;;;;;5009480;28;97429;-77
2022/06/04 19:58:00;;;;;;;3.30;2.03;;;;;;;;;;5013750;28;96366;-76
2022/06/04 20:00:26;;;;;;;4.85;2.22;;;;;;;;;;5025395;28;96665;-78
2022/06/04 20:02:53;;;;;;;3.90;2.20;;;;;;;;;;5028021;28;97329;-77
2022/06/04 20:05:20;;;;;;;5.47;2.30;;;;;;;;;;5030356;27;95492;-76
2022/06/04 20:07:46;;;;;;;3.03;1.90;;;;;;;;;;5028195;28;97063;-76
2022/06/04 20:10:12;;;;;;;6.97;2.35;;;;;;;;;;5011913;27;95466;-76
2022/06/04 20:12:39;;;;;;;4.80;2.25;;;;;;;;;;5007508;28;95631;-76
2022/06/04 20:15:08;;;;;;;3.60;2.25;;;;;;;;;;5012881;28;97321;-76
2022/06/04 20:17:34;;;;;;;3.65;2.35;;;;;;;;;;5027116;28;95479;-75
2022/06/04 20:20:01;;;;;;;8.05;2.60;;;;;;;;;;5024868;28;96663;-75
2022/06/04 20:22:27;;;;;;;3.75;2.25;;;;;;;;;;5026657;28;97362;-77
2022/06/04 20:24:53;;;;;;;3.90;2.20;;;;;;;;;;5027410;28;95424;-77
2022/06/04 20:27:20;;;;;;;4.22;2.13;;;;;;;;;;5028516;28;96643;-76
2022/06/04 20:29:46;;;;;;;4.85;2.13;;;;;;;;;;5025078;28;95473;-75
2022/06/04 20:32:13;;;;;;;4.32;2.30;;;;;;;;;;5007172;28;96677;-76
2022/06/04 20:34:40;;;;;;;3.60;2.20;;;;;;;;;;5018592;28;98979;-77
2022/06/04 20:37:07;;;;;;;4.60;2.20;;;;;;;;;;5025408;28;95259;-77
2022/06/04 20:39:33;;;;;;;4.15;2.33;;;;;;;;;;5007873;28;96645;-77
2022/06/04 20:42:00;;;;;;;4.13;2.65;;;;;;;;;;5007143;28;97419;-76
2022/06/04 20:44:27;;;;;;;3.58;2.28;;;;;;;;;;5007509;28;96862;-74
2022/06/04 20:46:53;;;;;;;3.92;2.38;;;;;;;;;;5028034;28;96870;-74
2022/06/04 20:49:19;;;;;;;3.97;2.47;;;;;;;;;;5027475;28;97384;-77
2022/06/04 20:51:46;;;;;;;4.43;2.50;;;;;;;;;;5008223;28;96796;-77
2022/06/04 20:54:14;;;;;;;3.15;2.25;;;;;;;;;;5006905;28;96290;-77
2022/06/04 20:56:41;;;;;;;5.38;2.10;;;;;;;;;;5001694;28;95859;-76
2022/06/04 20:59:09;;;;;;;5.03;2.50;;;;;;;;;;5013136;28;96754;-78
2022/06/04 21:01:36;;;;;;;6.75;2.58;;;;;;;;;;5011382;28;97358;-78
2022/06/04 21:04:03;;;;;;;6.55;3.13;;;;;;;;;;5013878;28;95315;-75
2022/06/04 21:06:35;;;;;;;4.30;2.50;;;;;;;;;;5009611;28;96934;-76
2022/06/04 21:09:05;;;;;;;5.00;2.63;;;;;;;;;;4993939;28;96299;-76
2022/06/04 21:11:31;;;;;;;5.10;2.65;;;;;;;;;;4996948;28;95502;-77
2022/06/04 21:13:58;;;;;;;5.28;2.55;;;;;;;;;;5004761;28;97413;-77
2022/06/04 21:16:26;;;;;;;6.53;2.40;;;;;;;;;;5011481;28;95535;-77
2022/06/04 21:18:53;;;;;;;3.80;2.28;;;;;;;;;;5007180;28;95841;-77
2022/06/04 21:21:20;;;;;;;5.43;2.75;;;;;;;;;;5008063;28;95623;-77
2022/06/04 21:23:52;;;;;;;;;;;;;;;;;;5012684;28;95402;-77
2022/06/04 21:26:23;;;;;;;3.50;2.33;;;;;;;;;;5006291;28;125730;-76
2022/06/04 21:28:50;;;;;;;4.57;2.33;;;;;;;;;;4992708;28;96305;-76
2022/06/04 21:31:18;;;;;;;4.45;2.38;;;;;;;;;;4991287;28;95350;-73
2022/06/04 21:33:45;;;;;;;3.67;2.20;;;;;;;;;;4995839;28;95855;-74
2022/06/04 21:39:05;;;;;;;5.32;2.60;;;;;;;;;;5011077;28;95924;-75
2022/06/04 21:41:31;;;;;;;5.15;2.80;;;;;;;;;;5012642;28;97359;-75
2022/06/04 21:43:59;;;;;;;6.57;2.35;;;;;;;;;;5012188;28;95808;-75
2022/06/04 21:46:26;;;;;;;4.75;2.53;;;;;;;;;;5010675;28;95751;-75
2022/06/04 21:48:54;;;;;;;4.13;2.63;;;;;;;;;;5007354;28;97495;-74
2022/06/04 21:51:20;;;;;;;4.72;2.70;;;;;;;;;;5012496;28;95442;-75
2022/06/04 21:53:47;;;;;;;5.30;2.53;;;;;;;;;;5014292;28;96865;-75
2022/06/04 21:56:15;;;;;;;4.40;2.45;;;;;;;;;;5015792;28;95408;-76
2022/06/04 21:58:42;;;;;;;4.03;2.30;;;;;;;;;;5003942;28;97014;-76
2022/06/04 22:01:21;;;;;;;4.65;2.35;;;;;;;;;;4993133;28;98429;-75
2022/06/04 22:03:49;;;;;;;5.47;2.78;;;;;;;;;;4997452;28;96047;-74
2022/06/04 22:06:16;;;;;;;4.93;2.92;;;;;;;;;;5024001;27;95618;-77
2022/06/04 22:08:43;;;;;;;6.28;2.60;;;;;;;;;;5003540;28;96296;-74
2022/06/04 22:11:15;;;;;;;5.28;2.72;;;;;;;;;;4993346;28;95455;-75
2022/06/04 22:13:42;;;;;;;4.78;2.28;;;;;;;;;;5006763;28;96679;-76
2022/06/04 22:16:09;;;;;;;4.22;2.60;;;;;;;;;;5016818;28;99393;-76
2022/06/04 22:18:37;;;;;;;6.40;2.90;;;;;;;;;;5004620;28;96615;-76
2022/06/04 22:21:03;;;;;;;4.72;2.85;;;;;;;;;;4996437;28;97427;-74
2022/06/04 22:23:30;;;;;;;5.82;2.55;;;;;;;;;;5013292;28;95943;-76
2022/06/04 22:25:57;;;;;;;5.55;2.65;;;;;;;;;;5010811;28;96883;-76
2022/06/04 22:28:24;;;;;;;4.50;2.70;;;;;;;;;;5010292;28;97299;-75
2022/06/04 22:30:51;;;;;;;4.18;2.30;;;;;;;;;;5012014;28;95346;-76
2022/06/04 22:33:18;;;;;;;6.20;3.08;;;;;;;;;;4994522;28;96947;-75
2022/06/04 22:35:45;;;;;;;5.57;2.75;;;;;;;;;;4993651;28;97443;-75
2022/06/04 22:38:15;;;;;;;5.10;2.67;;;;;;;;;;5013144;28;96386;-73
2022/06/04 22:40:42;;;;;;;4.40;2.75;;;;;;;;;;5012259;28;97827;-75
2022/06/04 22:43:09;;;;;;;6.57;2.60;;;;;;;;;;5010866;28;95919;-75
2022/06/04 22:45:37;;;;;;;4.43;3.00;;;;;;;;;;5012317;28;97139;-76
2022/06/04 22:48:04;;;;;;;5.30;2.70;;;;;;;;;;5002308;28;97443;-74
2022/06/04 22:50:31;;;;;;;5.05;2.80;;;;;;;;;;4992586;28;95320;-76
2022/06/04 22:52:57;;;;;;;5.10;2.75;;;;;;;;;;5005670;28;98059;-75
2022/06/04 22:55:23;;;;;;;4.25;2.63;;;;;;;;;;4991393;28;97307;-74
2022/06/04 22:57:50;;;;;;;6.15;3.17;;;;;;;;;;5013633;28;96165;-76
2022/06/04 23:00:16;;;;;;;5.60;2.97;;;;;;;;;;5015384;28;96782;-77
2022/06/04 23:02:43;;;;;;;4.72;2.63;;;;;;;;;;5010760;28;95273;-76
2022/06/04 23:05:09;;;;;;;5.78;2.95;;;;;;;;;;5011776;28;98455;-76
2022/06/04 23:07:36;;;;;;;5.25;3.25;;;;;;;;;;5012855;28;97351;-77
2022/06/04 23:21:04;;;;;;;5.47;3.03;;;;;;;;;;4992889;28;96699;-75
2022/06/04 23:23:31;;;;;;;5.78;3.17;;;;;;;;;;5006190;28;96705;-75
2022/06/04 23:26:00;;;;;;;7.80;3.25;;;;;;;;;;5012386;28;95960;-77
2022/06/04 23:28:30;;;;;;;5.30;3.30;;;;;;;;;;5012074;28;95060;-76
2022/06/04 23:30:59;;;;;;;5.82;3.15;;;;;;;;;;4992934;28;95425;-77
2022/06/04 23:33:27;;;;;;;5.32;2.90;;;;;;;;;;4998997;28;95666;-76
2022/06/04 23:35:53;;;;;;;6.63;3.17;;;;;;;;;;5012261;28;97507;-77
2022/06/04 23:38:21;;;;;;;5.05;3.10;;;;;;;;;;5009776;28;95451;-77
2022/06/04 23:40:49;;;;;;;5.95;3.17;;;;;;;;;;4992096;28;96989;-76
2022/06/04 23:43:16;;;;;;;5.78;2.88;;;;;;;;;;4998011;28;97337;-74
2022/06/04 23:45:43;;;;;;;5.63;2.90;;;;;;;;;;4998027;28;95383;-77
2022/06/04 23:48:11;;;;;;;9.18;3.05;;;;;;;;;;4993736;28;97314;-75
2022/06/04 23:50:38;;;;;;;4.28;2.70;;;;;;;;;;5006964;28;96178;-75
2022/06/04 23:53:05;;;;;;;6.47;3.35;;;;;;;;;;5012076;28;97011;-76
2022/06/04 23:55:32;;;;;;;5.45;2.70;;;;;;;;;;5011185;28;97234;-75
2022/06/04 23:58:02;;;;;;;6.15;3.10;;;;;;;;;;5009747;28;96804;-75
